Waldron, MI (49288)

5:17 AM EDT on May 06, 2015 (GMT -0400)
KD8WSL | | Change Station
CLOSE
Current Station
Personal Weather Station
Location: Morenci, MI
Elevation: 784 ft
Nearby Weather Stations
Active Advisory: Special Statement

Elev 784 ft 41.74 °N, 84.23 °W | Updated 10 minutes ago

Fog
Fog
51.1 °F
Feels Like 51.1 °F
N
5.0
Wind Variable Wind from East
Gusts 5.0 mph

Today
High -- | Low -- °F
--% Chance of Precip.
Yesterday
High -- | Low -- °F
Precip. -- in
6:28 AM 8:41 PM
Waning Gibbous, 95% visible
Pressure 30.22 in
Visibility 0.2 miles
Clouds Overcast 100 ft
Dew Point 49 °F
Humidity 92%
Rainfall 0.00 in
Snow Depth Not available.
UV 0.0 out of 12
Pollen 1.90 out of 12
Air Quality Not available.
Flu Activity Regional
METAR KJYM 060855Z AUTO 11004KT M1/4SM FG OVC001 11/11 A3022 RMK AO2 T01120112

More Conditions Fewer Conditions

Pressure 30.22 in
Visibility 0.2 miles
Clouds Overcast 100 ft
Dew Point 49 °F
Humidity 92%
Rainfall 0.00 in
Snow Depth Not available.
UV 0.0 out of 12
Pollen 1.90 out of 12
Air Quality Not available.
Flu Activity Regional
METAR KJYM 060855Z AUTO 11004KT M1/4SM FG OVC001 11/11 A3022 RMK AO2 T01120112

More Conditions Fewer Conditions

10-Day Weather Forecast

Almanac

Astronomy

May. 06, 2015 Rise Set
Actual Time
Civil Twilight
Nautical Twilight
Astronomical Twilight
Moon
Length of Visible Light
Length of Day
Tomorrow will be .
, % of the Moon is Illuminated

Today's Extremes

State Highs State Lows

Community

WunderPhotos

Upload Photos

1,818,858 photos uploaded!

WunderBlogs® & News

Nearby

Air Quality

  Air Quality AQ Index Pollutant
Not available.

Snow Depth

Station Depth Elevation

Earthquake Activity

City Distance Mag. Time & Date
Minimum magnitude displayed is 2.5.

Coastal Water Temperatures

Place Temperature

Stations

Nearby Weather Stations

Station Location Temp. Windchill Dew Point Humidity Wind Precip. Elev Updated Type
                   
Special Statement
Statement as of 4:17 AM EDT on May 06, 2015

... Areas of dense fog this morning...

Areas of dense fog will reduce the visibility to one quarter mile
or less at times this morning. Driving will be difficult due to
the poor visibility. Slow down... use low beam headlights... and
allow extra time to reach your destination. Conditions are
expected to gradually improve after sunrise.



417 am EDT Wed may 6 2015

... Areas of dense fog this morning...

Areas of dense fog will reduce the visibility to one quarter mile
or less at times this morning. Driving will be difficult due to
the poor visibility. Slow down... use low beam headlights... and
allow extra time to reach your destination. Conditions are
expected to gradually improve after sunrise.